Royal Melbourne — WDC2865 — position and weather

sailwx.info

Track history (hours):
 
Tides and Currents Weather Stations Pressure Air Temp Water Temp Dewpoint Dewpoint Depression Visibility Wind Speed Wind Dir Waves Ship Positions

Royal Melbourne

Owner: Harley Marine Services, Inc, Seattle, WA. More information available from US FCC via Universal Licensing System and Coast Guard Vessel Documentation Center.

Last reported at 2017-Jan-25 00:30 UTC. Time now 2017-Jan-25 01:24 UTC.
Position N 37°48' W 122°24'.

Length 30 m; draft 2 m.

Type: Tug. MMSI: 366998830.

Date/timePositionNaut miles runAvg speedWind from/ knotsBaromVisibWave heightAir tempDewpointWater temp
2017-Jan-25 00:30N 37°48' W 122°24'0 0.0
2017-Jan-24 23:32N 37°48' W 122°24'0 0.0
2017-Jan-24 22:29N 37°48' W 122°24'0 0.1
2017-Jan-24 21:32N 37°48' W 122°24'0 0.0
2017-Jan-24 20:32N 37°48' W 122°24'0 0.0
2017-Jan-24 19:34N 37°48' W 122°24'1 1.3
2017-Jan-24 18:33N 37°47' W 122°23'2 2.3
2017-Jan-24 17:34N 37°49' W 122°24'5 4.8
2017-Jan-24 16:33N 37°54' W 122°25'2 2.3
2017-Jan-24 15:28N 37°55' W 122°22'0 0.0
2017-Jan-24 14:31N 37°55' W 122°22'0 0.0
2017-Jan-24 13:31N 37°55' W 122°22'0 0.0
2017-Jan-24 12:31N 37°55' W 122°22'0 0.0
2017-Jan-24 11:31N 37°55' W 122°22'0 0.0
2017-Jan-24 10:31N 37°55' W 122°22'0 0.0
2017-Jan-24 09:31N 37°55' W 122°22'0 0.0
2017-Jan-24 08:28N 37°55' W 122°22'0 0.0
2017-Jan-24 07:31N 37°55' W 122°22'0 0.0
2017-Jan-24 06:31N 37°55' W 122°22'0 0.0
2017-Jan-24 05:28N 37°55' W 122°22'0 0.0
2017-Jan-24 04:31N 37°55' W 122°22'0 0.0
2017-Jan-24 03:31N 37°55' W 122°22'0 0.0
2017-Jan-24 02:31N 37°55' W 122°22'0 0.0
2017-Jan-24 01:31N 37°55' W 122°22'0 0.0
2017-Jan-24 00:34N 37°55' W 122°22'0 0.0
2017-Jan-23 23:33N 37°55' W 122°22'0 0.1
2017-Jan-23 22:30N 37°55' W 122°22'0 0.0
2017-Jan-23 21:30N 37°55' W 122°22'0 0.0
2017-Jan-23 20:33N 37°55' W 122°22'0 0.0
2017-Jan-23 19:30N 37°55' W 122°22'0 0.0
2017-Jan-23 18:18N 37°55' W 122°22'0 0.0
2017-Jan-23 17:24N 37°55' W 122°22'0 0.0
2017-Jan-23 16:27N 37°55' W 122°22'0 0.0
2017-Jan-23 15:33N 37°55' W 122°22'0 0.0
2017-Jan-23 14:30N 37°55' W 122°22'0 0.0
2017-Jan-23 13:33N 37°55' W 122°22'5 5.3
2017-Jan-23 12:33N 37°50' W 122°22'4 4.2
2017-Jan-23 11:32N 37°48' W 122°17'0 0.0
2017-Jan-23 10:32N 37°48' W 122°17'0 0.0
2017-Jan-23 09:32N 37°48' W 122°17'0 0.0
2017-Jan-23 08:32N 37°48' W 122°17'0 0.0
2017-Jan-23 07:29N 37°48' W 122°17'0 0.0
2017-Jan-23 06:32N 37°48' W 122°17'0 0.0
2017-Jan-23 05:32N 37°48' W 122°17'0 0.0
2017-Jan-23 04:32N 37°48' W 122°17'0 0.0
2017-Jan-23 03:32N 37°48' W 122°17'0 0.0
2017-Jan-23 02:31N 37°48' W 122°17'0 0.0
2017-Jan-23 01:31N 37°48' W 122°17'0 0.1
2017-Jan-23 00:33N 37°48' W 122°17'0 0.0
2017-Jan-22 23:33N 37°48' W 122°17'0 0.0
2017-Jan-22 22:33N 37°48' W 122°17'0 0.0
2017-Jan-22 21:33N 37°48' W 122°17'0 0.0
2017-Jan-22 20:34N 37°48' W 122°17'0 0.0
2017-Jan-22 19:33N 37°48' W 122°17'0 0.0
2017-Jan-22 18:33N 37°48' W 122°17'0 0.0
2017-Jan-22 17:30N 37°48' W 122°17'0 0.0
2017-Jan-22 16:33N 37°48' W 122°17'0 0.0
2017-Jan-22 15:33N 37°48' W 122°17'0 0.0
2017-Jan-22 14:33N 37°48' W 122°17'0 0.0
2017-Jan-22 13:33N 37°48' W 122°17'0 0.0
2017-Jan-22 12:33N 37°48' W 122°17'0 0.0
2017-Jan-22 11:33N 37°48' W 122°17'0 0.0
2017-Jan-22 10:33N 37°48' W 122°17'0 0.0
2017-Jan-22 09:33N 37°48' W 122°17'0 0.0
2017-Jan-22 08:33N 37°48' W 122°17'0 0.0
2017-Jan-22 07:33N 37°48' W 122°17'0 0.0
2017-Jan-22 06:33N 37°48' W 122°17'0 0.0
2017-Jan-22 05:33N 37°48' W 122°17'0 0.0
2017-Jan-22 04:33N 37°48' W 122°17'0 0.0
2017-Jan-22 03:33N 37°48' W 122°17'0 0.0
2017-Jan-22 02:30N 37°48' W 122°17'0 0.0
2017-Jan-22 01:33N 37°48' W 122°17'0 0.0
2017-Jan-22 00:24N 37°48' W 122°17'0 0.0
2017-Jan-21 23:33N 37°48' W 122°17'0 0.0
2017-Jan-21 22:27N 37°48' W 122°17'0 0.0
2017-Jan-21 21:33N 37°48' W 122°17'0 0.0
2017-Jan-21 20:33N 37°48' W 122°17'0 0.0
2017-Jan-21 19:24N 37°48' W 122°17'0 0.0
2017-Jan-21 18:30N 37°48' W 122°17'0 0.0
2017-Jan-21 17:30N 37°48' W 122°17'0 0.0
2017-Jan-21 16:32N 37°48' W 122°17'0 0.0
2017-Jan-21 15:33N 37°48' W 122°17'0 0.0
2017-Jan-21 14:29N 37°48' W 122°17'0 0.0
2017-Jan-21 13:32N 37°48' W 122°17'0 0.0
2017-Jan-21 12:32N 37°48' W 122°17'0 0.0
2017-Jan-21 11:33N 37°48' W 122°17'0 0.0
2017-Jan-21 10:32N 37°48' W 122°17'0 0.0
2017-Jan-21 09:32N 37°48' W 122°17'0 0.0
2017-Jan-21 08:32N 37°48' W 122°17'0 0.0
2017-Jan-21 07:32N 37°48' W 122°17'0 0.0
2017-Jan-21 06:29N 37°48' W 122°17'0 0.0
2017-Jan-21 05:32N 37°48' W 122°17'0 0.0
2017-Jan-21 04:32N 37°48' W 122°17'0 0.0
2017-Jan-21 03:32N 37°48' W 122°17'0 0.0
2017-Jan-21 02:32N 37°48' W 122°17'0 0.0
2017-Jan-21 01:32N 37°48' W 122°17'0 0.0
2017-Jan-21 00:25N 37°48' W 122°17'0 0.0
2017-Jan-20 23:31N 37°48' W 122°17'0 0.0
2017-Jan-20 22:31N 37°48' W 122°17'0 0.0
2017-Jan-20 21:31N 37°48' W 122°17'0 0.0
2017-Jan-20 20:31N 37°48' W 122°17'0 0.0
2017-Jan-20 19:31N 37°48' W 122°17'0 0.1
2017-Jan-20 18:32N 37°48' W 122°17'0 0.1
2017-Jan-20 17:32N 37°48' W 122°17'0 0.0
2017-Jan-20 16:32N 37°48' W 122°17'0 0.0
2017-Jan-20 15:32N 37°48' W 122°17'0 0.0
2017-Jan-20 14:32N 37°48' W 122°17'0 0.0
2017-Jan-20 13:32N 37°48' W 122°17'0 0.0
2017-Jan-20 12:32N 37°48' W 122°17'0 0.0
2017-Jan-20 11:32N 37°48' W 122°17'0 0.0
2017-Jan-20 10:32N 37°48' W 122°17'0 0.0
2017-Jan-20 09:32N 37°48' W 122°17'0 0.0
2017-Jan-20 08:31N 37°48' W 122°17'0 0.0
2017-Jan-20 07:31N 37°48' W 122°17'0 0.0
2017-Jan-20 06:31N 37°48' W 122°17'0 0.0
2017-Jan-20 05:31N 37°48' W 122°17'0 0.0
2017-Jan-20 04:31N 37°48' W 122°17'0 0.0
2017-Jan-20 03:31N 37°48' W 122°17'0 0.0
2017-Jan-20 02:33N 37°48' W 122°17'4 3.7
2017-Jan-20 01:33N 37°46' W 122°21'2 2.1
2017-Jan-20 00:32N 37°44' W 122°21'0 0.0
2017-Jan-19 23:32N 37°44' W 122°21'0 0.0
2017-Jan-19 22:29N 37°44' W 122°21'0 0.2
2017-Jan-19 21:29N 37°44' W 122°21'0 0.1
2017-Jan-19 20:33N 37°44' W 122°21'5 4.7
2017-Jan-19 19:33N 37°48' W 122°17'  
Track history (hours):
 
Tides and Currents Weather Stations Pressure Air Temp Water Temp Dewpoint Dewpoint Depression Visibility Wind Speed Wind Dir Waves Ship Positions

Royal Melbourne

Owner: Harley Marine Services, Inc, Seattle, WA. More information available from US FCC via Universal Licensing System and Coast Guard Vessel Documentation Center.

Last reported at 2017-Jan-25 00:30 UTC. Time now 2017-Jan-25 01:24 UTC.
Position N 37°48' W 122°24'.

Length 30 m; draft 2 m.

Type: Tug. MMSI: 366998830.

Date/timePositionNaut miles runAvg speedWind from/ knotsBaromVisibWave heightAir tempDewpointWater temp
2017-Jan-25 00:30N 37°48' W 122°24'0 0.0
2017-Jan-24 23:32N 37°48' W 122°24'0 0.0
2017-Jan-24 22:29N 37°48' W 122°24'0 0.1
2017-Jan-24 21:32N 37°48' W 122°24'0 0.0
2017-Jan-24 20:32N 37°48' W 122°24'0 0.0
2017-Jan-24 19:34N 37°48' W 122°24'1 1.3
2017-Jan-24 18:33N 37°47' W 122°23'2 2.3
2017-Jan-24 17:34N 37°49' W 122°24'5 4.8
2017-Jan-24 16:33N 37°54' W 122°25'2 2.3
2017-Jan-24 15:28N 37°55' W 122°22'0 0.0
2017-Jan-24 14:31N 37°55' W 122°22'0 0.0
2017-Jan-24 13:31N 37°55' W 122°22'0 0.0
2017-Jan-24 12:31N 37°55' W 122°22'0 0.0
2017-Jan-24 11:31N 37°55' W 122°22'0 0.0
2017-Jan-24 10:31N 37°55' W 122°22'0 0.0
2017-Jan-24 09:31N 37°55' W 122°22'0 0.0
2017-Jan-24 08:28N 37°55' W 122°22'0 0.0
2017-Jan-24 07:31N 37°55' W 122°22'0 0.0
2017-Jan-24 06:31N 37°55' W 122°22'0 0.0
2017-Jan-24 05:28N 37°55' W 122°22'0 0.0
2017-Jan-24 04:31N 37°55' W 122°22'0 0.0
2017-Jan-24 03:31N 37°55' W 122°22'0 0.0
2017-Jan-24 02:31N 37°55' W 122°22'0 0.0
2017-Jan-24 01:31N 37°55' W 122°22'0 0.0
2017-Jan-24 00:34N 37°55' W 122°22'0 0.0
2017-Jan-23 23:33N 37°55' W 122°22'0 0.1
2017-Jan-23 22:30N 37°55' W 122°22'0 0.0
2017-Jan-23 21:30N 37°55' W 122°22'0 0.0
2017-Jan-23 20:33N 37°55' W 122°22'0 0.0
2017-Jan-23 19:30N 37°55' W 122°22'0 0.0
2017-Jan-23 18:18N 37°55' W 122°22'0 0.0
2017-Jan-23 17:24N 37°55' W 122°22'0 0.0
2017-Jan-23 16:27N 37°55' W 122°22'0 0.0
2017-Jan-23 15:33N 37°55' W 122°22'0 0.0
2017-Jan-23 14:30N 37°55' W 122°22'0 0.0
2017-Jan-23 13:33N 37°55' W 122°22'5 5.3
2017-Jan-23 12:33N 37°50' W 122°22'4 4.2
2017-Jan-23 11:32N 37°48' W 122°17'0 0.0
2017-Jan-23 10:32N 37°48' W 122°17'0 0.0
2017-Jan-23 09:32N 37°48' W 122°17'0 0.0
2017-Jan-23 08:32N 37°48' W 122°17'0 0.0
2017-Jan-23 07:29N 37°48' W 122°17'0 0.0
2017-Jan-23 06:32N 37°48' W 122°17'0 0.0
2017-Jan-23 05:32N 37°48' W 122°17'0 0.0
2017-Jan-23 04:32N 37°48' W 122°17'0 0.0
2017-Jan-23 03:32N 37°48' W 122°17'0 0.0
2017-Jan-23 02:31N 37°48' W 122°17'0 0.0
2017-Jan-23 01:31N 37°48' W 122°17'0 0.1
2017-Jan-23 00:33N 37°48' W 122°17'0 0.0
2017-Jan-22 23:33N 37°48' W 122°17'0 0.0
2017-Jan-22 22:33N 37°48' W 122°17'0 0.0
2017-Jan-22 21:33N 37°48' W 122°17'0 0.0
2017-Jan-22 20:34N 37°48' W 122°17'0 0.0
2017-Jan-22 19:33N 37°48' W 122°17'0 0.0
2017-Jan-22 18:33N 37°48' W 122°17'0 0.0
2017-Jan-22 17:30N 37°48' W 122°17'0 0.0
2017-Jan-22 16:33N 37°48' W 122°17'0 0.0
2017-Jan-22 15:33N 37°48' W 122°17'0 0.0
2017-Jan-22 14:33N 37°48' W 122°17'0 0.0
2017-Jan-22 13:33N 37°48' W 122°17'0 0.0
2017-Jan-22 12:33N 37°48' W 122°17'0 0.0
2017-Jan-22 11:33N 37°48' W 122°17'0 0.0
2017-Jan-22 10:33N 37°48' W 122°17'0 0.0
2017-Jan-22 09:33N 37°48' W 122°17'0 0.0
2017-Jan-22 08:33N 37°48' W 122°17'0 0.0
2017-Jan-22 07:33N 37°48' W 122°17'0 0.0
2017-Jan-22 06:33N 37°48' W 122°17'0 0.0
2017-Jan-22 05:33N 37°48' W 122°17'0 0.0
2017-Jan-22 04:33N 37°48' W 122°17'0 0.0
2017-Jan-22 03:33N 37°48' W 122°17'0 0.0
2017-Jan-22 02:30N 37°48' W 122°17'0 0.0
2017-Jan-22 01:33N 37°48' W 122°17'0 0.0
2017-Jan-22 00:24N 37°48' W 122°17'0 0.0
2017-Jan-21 23:33N 37°48' W 122°17'0 0.0
2017-Jan-21 22:27N 37°48' W 122°17'0 0.0
2017-Jan-21 21:33N 37°48' W 122°17'0 0.0
2017-Jan-21 20:33N 37°48' W 122°17'0 0.0
2017-Jan-21 19:24N 37°48' W 122°17'0 0.0
2017-Jan-21 18:30N 37°48' W 122°17'0 0.0
2017-Jan-21 17:30N 37°48' W 122°17'0 0.0
2017-Jan-21 16:32N 37°48' W 122°17'0 0.0
2017-Jan-21 15:33N 37°48' W 122°17'0 0.0
2017-Jan-21 14:29N 37°48' W 122°17'0 0.0
2017-Jan-21 13:32N 37°48' W 122°17'0 0.0
2017-Jan-21 12:32N 37°48' W 122°17'0 0.0
2017-Jan-21 11:33N 37°48' W 122°17'0 0.0
2017-Jan-21 10:32N 37°48' W 122°17'0 0.0
2017-Jan-21 09:32N 37°48' W 122°17'0 0.0
2017-Jan-21 08:32N 37°48' W 122°17'0 0.0
2017-Jan-21 07:32N 37°48' W 122°17'0 0.0
2017-Jan-21 06:29N 37°48' W 122°17'0 0.0
2017-Jan-21 05:32N 37°48' W 122°17'0 0.0
2017-Jan-21 04:32N 37°48' W 122°17'0 0.0
2017-Jan-21 03:32N 37°48' W 122°17'0 0.0
2017-Jan-21 02:32N 37°48' W 122°17'0 0.0
2017-Jan-21 01:32N 37°48' W 122°17'0 0.0
2017-Jan-21 00:25N 37°48' W 122°17'0 0.0
2017-Jan-20 23:31N 37°48' W 122°17'0 0.0
2017-Jan-20 22:31N 37°48' W 122°17'0 0.0
2017-Jan-20 21:31N 37°48' W 122°17'0 0.0
2017-Jan-20 20:31N 37°48' W 122°17'0 0.0
2017-Jan-20 19:31N 37°48' W 122°17'0 0.1
2017-Jan-20 18:32N 37°48' W 122°17'0 0.1
2017-Jan-20 17:32N 37°48' W 122°17'0 0.0
2017-Jan-20 16:32N 37°48' W 122°17'0 0.0
2017-Jan-20 15:32N 37°48' W 122°17'0 0.0
2017-Jan-20 14:32N 37°48' W 122°17'0 0.0
2017-Jan-20 13:32N 37°48' W 122°17'0 0.0
2017-Jan-20 12:32N 37°48' W 122°17'0 0.0
2017-Jan-20 11:32N 37°48' W 122°17'0 0.0
2017-Jan-20 10:32N 37°48' W 122°17'0 0.0
2017-Jan-20 09:32N 37°48' W 122°17'0 0.0
2017-Jan-20 08:31N 37°48' W 122°17'0 0.0
2017-Jan-20 07:31N 37°48' W 122°17'0 0.0
2017-Jan-20 06:31N 37°48' W 122°17'0 0.0
2017-Jan-20 05:31N 37°48' W 122°17'0 0.0
2017-Jan-20 04:31N 37°48' W 122°17'0 0.0
2017-Jan-20 03:31N 37°48' W 122°17'0 0.0
2017-Jan-20 02:33N 37°48' W 122°17'4 3.7
2017-Jan-20 01:33N 37°46' W 122°21'2 2.1
2017-Jan-20 00:32N 37°44' W 122°21'0 0.0
2017-Jan-19 23:32N 37°44' W 122°21'0 0.0
2017-Jan-19 22:29N 37°44' W 122°21'0 0.2
2017-Jan-19 21:29N 37°44' W 122°21'0 0.1
2017-Jan-19 20:33N 37°44' W 122°21'5 4.7
2017-Jan-19 19:33N 37°48' W 122°17'  

Dump ship's entire track history